Time,TemperatureF,DewpointF,PressureIn,WindDirection,WindDirectionDegrees,WindSpeedMPH,WindSpeedGustMPH,Humidity,HourlyPrecipIn,Conditions,Clouds,dailyrainin,SoftwareType,DateUTC
2013-02-17 00:13:00,31.5,28.0,29.54,ESE,102,13.0,-999.0,88,-99.99,,,0.02,weatherlink.com 1.10,2013-02-17 05:13:00,
2013-02-17 00:28:00,31.2,28.0,29.54,East,89,6.0,-999.0,86,-99.99,,,0.00,weatherlink.com 1.10,2013-02-17 05:28:00,
2013-02-17 00:43:00,31.0,27.0,29.54,ENE,62,17.0,-999.0,84,-99.99,,,0.00,weatherlink.com 1.10,2013-02-17 05:43:00,
2013-02-17 00:59:00,30.6,26.0,29.54,ESE,110,2.0,-999.0,82,-99.99,,,0.00,weatherlink.com 1.10,2013-02-17 05:59:00,
2013-02-17 01:14:00,30.1,25.0,29.52,NNE,31,13.0,-999.0,80,-99.99,,,0.00,weatherlink.com 1.10,2013-02-17 06:14:00,
2013-02-17 01:29:00,30.1,24.0,29.52,NE,54,9.0,-999.0,77,-99.99,,,0.00,weatherlink.com 1.10,2013-02-17 06:29:00,
2013-02-17 01:44:00,29.7,23.0,29.50,NNE,30,5.0,-999.0,77,-99.99,,,0.00,weatherlink.com 1.10,2013-02-17 06:44:00,
2013-02-17 01:59:00,29.3,22.0,29.50,ENE,64,13.0,-999.0,75,-99.99,,,0.00,weatherlink.com 1.10,2013-02-17 06:59:00,
2013-02-17 02:14:00,29.0,22.0,29.49,NE,48,14.0,-999.0,74,-99.99,,,0.00,weatherlink.com 1.10,2013-02-17 07:14:00,
2013-02-17 02:29:00,28.4,21.0,29.48,ENE,57,7.0,-999.0,74,-99.99,,,0.00,weatherlink.com 1.10,2013-02-17 07:29:00,
2013-02-17 02:44:00,27.8,21.0,29.46,NE,36,5.0,-999.0,77,-99.99,,,0.00,weatherlink.com 1.10,2013-02-17 07:44:00,
2013-02-17 02:59:00,27.2,22.0,29.46,NE,54,5.0,-999.0,80,-99.99,,,0.00,weatherlink.com 1.10,2013-02-17 07:59:00,
2013-02-17 03:14:00,26.4,22.0,29.45,NNE,29,10.0,-999.0,82,-99.99,,,0.00,weatherlink.com 1.10,2013-02-17 08:14:00,
2013-02-17 03:29:00,26.0,22.0,29.44,ENE,68,11.0,-999.0,84,-99.99,,,0.00,weatherlink.com 1.10,2013-02-17 08:29:00,
2013-02-17 03:44:00,25.8,22.0,29.43,ENE,58,12.0,-999.0,85,-99.99,,,0.00,weatherlink.com 1.10,2013-02-17 08:44:00,
2013-02-17 03:59:00,25.7,22.0,29.42,ENE,57,18.0,-999.0,85,-99.99,,,0.00,weatherlink.com 1.10,2013-02-17 08:59:00,
2013-02-17 04:14:00,25.6,21.0,29.41,ENE,61,16.0,-999.0,84,-99.99,,,0.00,weatherlink.com 1.10,2013-02-17 09:14:00,
2013-02-17 04:29:00,25.3,21.0,29.41,ENE,57,10.0,-999.0,84,-99.99,,,0.00,weatherlink.com 1.10,2013-02-17 09:29:00,
2013-02-17 04:44:00,25.1,21.0,29.41,NE,54,12.0,-999.0,83,-99.99,,,0.00,weatherlink.com 1.10,2013-02-17 09:44:00,
2013-02-17 04:59:00,24.7,20.0,29.39,North,356,6.0,-999.0,82,-99.99,,,0.00,weatherlink.com 1.10,2013-02-17 09:59:00,
2013-02-17 05:14:00,24.4,20.0,29.38,SE,126,7.0,-999.0,82,-99.99,,,0.00,weatherlink.com 1.10,2013-02-17 10:14:00,
2013-02-17 05:29:00,24.1,20.0,29.37,NNE,30,7.0,-999.0,83,-99.99,,,0.00,weatherlink.com 1.10,2013-02-17 10:29:00,
2013-02-17 05:44:00,23.2,19.0,29.36,NE,38,9.0,-999.0,83,-99.99,,,0.00,weatherlink.com 1.10,2013-02-17 10:44:00,
2013-02-17 05:59:00,22.5,19.0,29.35,NNE,31,16.0,-999.0,85,-99.99,,,0.00,weatherlink.com 1.10,2013-02-17 10:59:00,
2013-02-17 06:14:00,22.2,18.0,29.34,NE,47,19.0,-999.0,85,-99.99,,,0.00,weatherlink.com 1.10,2013-02-17 11:14:00,
2013-02-17 06:29:00,21.9,18.0,29.33,NE,53,12.0,-999.0,86,-99.99,,,0.00,weatherlink.com 1.10,2013-02-17 11:29:00,
2013-02-17 06:44:00,21.8,18.0,29.31,NNE,23,10.0,-999.0,86,-99.99,,,0.00,weatherlink.com 1.10,2013-02-17 11:44:00,
2013-02-17 06:59:00,21.1,17.0,29.31,NE,40,9.0,-999.0,85,-99.99,,,0.00,weatherlink.com 1.10,2013-02-17 11:59:00,
2013-02-17 07:14:00,21.0,17.0,29.30,ENE,72,13.0,-999.0,85,-99.99,,,0.00,weatherlink.com 1.10,2013-02-17 12:14:00,
2013-02-17 07:29:00,20.6,17.0,29.30,NE,47,14.0,-999.0,85,-99.99,,,0.00,weatherlink.com 1.10,2013-02-17 12:29:00,
2013-02-17 07:45:00,20.5,17.0,29.28,NNE,16,12.0,-999.0,86,-99.99,,,0.00,weatherlink.com 1.10,2013-02-17 12:45:00,
2013-02-17 08:00:00,20.5,17.0,29.29,North,2,13.0,-999.0,86,-99.99,,,0.00,weatherlink.com 1.10,2013-02-17 13:00:00,
2013-02-17 08:15:00,20.3,17.0,29.28,NNE,20,11.0,-999.0,86,-99.99,,,0.00,weatherlink.com 1.10,2013-02-17 13:15:00,
2013-02-17 08:30:00,20.0,17.0,29.27,North,5,13.0,-999.0,87,-99.99,,,0.00,weatherlink.com 1.10,2013-02-17 13:30:00,
2013-02-17 08:45:00,19.4,16.0,29.26,NNW,348,14.0,-999.0,87,-99.99,,,0.00,weatherlink.com 1.10,2013-02-17 13:45:00,
2013-02-17 09:00:00,19.1,16.0,29.25,North,3,8.0,-999.0,86,-99.99,,,0.00,weatherlink.com 1.10,2013-02-17 14:00:00,
2013-02-17 09:15:00,19.1,16.0,29.25,NNE,16,9.0,-999.0,86,-99.99,,,0.00,weatherlink.com 1.10,2013-02-17 14:15:00,
2013-02-17 09:30:00,19.1,16.0,29.25,North,6,18.0,-999.0,86,-99.99,,,0.00,weatherlink.com 1.10,2013-02-17 14:30:00,
2013-02-17 09:45:00,19.2,16.0,29.24,NNE,19,14.0,-999.0,86,-99.99,,,0.00,weatherlink.com 1.10,2013-02-17 14:45:00,
2013-02-17 10:00:00,19.2,16.0,29.24,North,349,4.0,-999.0,86,-99.99,,,0.00,weatherlink.com 1.10,2013-02-17 15:00:00,
2013-02-17 10:15:00,19.1,16.0,29.25,North,6,10.0,-999.0,86,-99.99,,,0.00,weatherlink.com 1.10,2013-02-17 15:15:00,
2013-02-17 10:30:00,19.1,16.0,29.25,North,6,10.0,-999.0,86,-99.99,,,0.00,weatherlink.com 1.10,2013-02-17 15:30:00,
2013-02-17 10:45:00,19.1,16.0,29.25,North,0,11.0,-999.0,86,-99.99,,,0.00,weatherlink.com 1.10,2013-02-17 15:45:00,
2013-02-17 11:00:00,19.1,16.0,29.25,North,9,11.0,-999.0,86,-99.99,,,0.00,weatherlink.com 1.10,2013-02-17 16:00:00,
2013-02-17 11:15:00,19.1,16.0,29.25,North,358,12.0,-999.0,86,-99.99,,,0.00,weatherlink.com 1.10,2013-02-17 16:15:00,
2013-02-17 11:30:00,19.1,16.0,29.25,NNE,22,7.0,-999.0,86,-99.99,,,0.00,weatherlink.com 1.10,2013-02-17 16:30:00,
2013-02-17 11:45:00,19.1,16.0,29.25,North,358,8.0,-999.0,86,-99.99,,,0.00,weatherlink.com 1.10,2013-02-17 16:45:00,
2013-02-17 12:00:00,19.2,16.0,29.26,North,7,8.0,-999.0,86,-99.99,,,0.00,weatherlink.com 1.10,2013-02-17 17:00:00,
2013-02-17 12:15:00,19.4,16.0,29.26,North,358,11.0,-999.0,86,-99.99,,,0.00,weatherlink.com 1.10,2013-02-17 17:15:00,
2013-02-17 12:30:00,19.7,16.0,29.26,North,7,10.0,-999.0,86,-99.99,,,0.00,weatherlink.com 1.10,2013-02-17 17:30:00,
2013-02-17 12:45:00,19.9,16.0,29.26,North,9,17.0,-999.0,86,-99.99,,,0.00,weatherlink.com 1.10,2013-02-17 17:45:00,
2013-02-17 13:00:00,20.2,17.0,29.27,NNW,345,12.0,-999.0,86,-99.99,,,0.00,weatherlink.com 1.10,2013-02-17 18:00:00,
2013-02-17 13:15:00,20.3,17.0,29.27,NNW,345,8.0,-999.0,85,-99.99,,,0.00,weatherlink.com 1.10,2013-02-17 18:15:00,
2013-02-17 13:30:00,20.5,16.0,29.27,North,350,16.0,-999.0,84,-99.99,,,0.00,weatherlink.com 1.10,2013-02-17 18:30:00,
2013-02-17 13:45:00,20.8,16.0,29.27,North,7,7.0,-999.0,82,-99.99,,,0.00,weatherlink.com 1.10,2013-02-17 18:45:00,
2013-02-17 14:00:00,21.4,16.0,29.28,NNE,12,7.0,-999.0,81,-99.99,,,0.00,weatherlink.com 1.10,2013-02-17 19:00:00,
2013-02-17 14:15:00,21.6,17.0,29.28,North,355,14.0,-999.0,81,-99.99,,,0.00,weatherlink.com 1.10,2013-02-17 19:15:00,
2013-02-17 14:30:00,21.8,11.0,29.29,NNW,332,20.0,-999.0,63,-99.99,,,0.00,weatherlink.com 1.10,2013-02-17 19:30:00,
2013-02-17 14:45:00,21.9,9.0,29.30,NNE,19,8.0,-999.0,58,-99.99,,,0.00,weatherlink.com 1.10,2013-02-17 19:45:00,
2013-02-17 15:00:00,21.8,7.0,29.30,NNW,345,17.0,-999.0,54,-99.99,,,0.00,weatherlink.com 1.10,2013-02-17 20:00:00,
2013-02-17 15:15:00,22.1,6.0,29.31,North,7,21.0,-999.0,50,-99.99,,,0.00,weatherlink.com 1.10,2013-02-17 20:15:00,
2013-02-17 15:30:00,22.2,5.0,29.32,North,350,20.0,-999.0,48,-99.99,,,0.00,weatherlink.com 1.10,2013-02-17 20:30:00,
2013-02-17 15:45:00,22.1,5.0,29.33,North,359,16.0,-999.0,47,-99.99,,,0.00,weatherlink.com 1.10,2013-02-17 20:45:00,
2013-02-17 16:00:00,22.2,4.0,29.34,NNW,343,12.0,-999.0,45,-99.99,,,0.00,weatherlink.com 1.10,2013-02-17 21:00:00,
2013-02-17 16:15:00,22.5,3.0,29.34,North,355,13.0,-999.0,43,-99.99,,,0.00,weatherlink.com 1.10,2013-02-17 21:15:00,
2013-02-17 16:30:00,22.7,3.0,29.35,North,350,21.0,-999.0,43,-99.99,,,0.00,weatherlink.com 1.10,2013-02-17 21:30:00,
2013-02-17 16:45:00,22.5,3.0,29.36,North,356,19.0,-999.0,43,-99.99,,,0.00,weatherlink.com 1.10,2013-02-17 21:45:00,
2013-02-17 17:00:00,22.7,2.0,29.37,NNE,14,20.0,-999.0,41,-99.99,,,0.00,weatherlink.com 1.10,2013-02-17 22:00:00,
2013-02-17 17:15:00,23.0,2.0,29.38,NNE,20,20.0,-999.0,41,-99.99,,,0.00,weatherlink.com 1.10,2013-02-17 22:15:00,
2013-02-17 17:30:00,23.2,3.0,29.38,NNE,29,17.0,-999.0,41,-99.99,,,0.00,weatherlink.com 1.10,2013-02-17 22:30:00,
2013-02-17 17:45:00,23.5,3.0,29.39,NNW,331,9.0,-999.0,41,-99.99,,,0.00,weatherlink.com 1.10,2013-02-17 22:45:00,
2013-02-17 18:00:00,23.6,1.0,29.40,North,0,8.0,-999.0,38,-99.99,,,0.00,weatherlink.com 1.10,2013-02-17 23:00:00,
2013-02-17 18:15:00,23.8,2.0,29.41,NNE,13,22.0,-999.0,38,-99.99,,,0.00,weatherlink.com 1.10,2013-02-17 23:15:00,
2013-02-17 18:30:00,23.8,1.0,29.41,North,2,10.0,-999.0,37,-99.99,,,0.00,weatherlink.com 1.10,2013-02-17 23:30:00,
2013-02-17 18:45:00,23.9,0.0,29.42,North,9,11.0,-999.0,35,-99.99,,,0.00,weatherlink.com 1.10,2013-02-17 23:45:00,
2013-02-17 19:00:00,24.1,0.0,29.42,North,358,13.0,-999.0,35,-99.99,,,0.00,weatherlink.com 1.10,2013-02-18 00:00:00,
2013-02-17 19:15:00,23.9,0.0,29.42,North,350,15.0,-999.0,35,-99.99,,,0.00,weatherlink.com 1.10,2013-02-18 00:15:00,
2013-02-17 19:31:00,23.9,-1.0,29.42,North,355,21.0,-999.0,34,-99.99,,,0.00,weatherlink.com 1.10,2013-02-18 00:31:00,
2013-02-17 19:46:00,23.9,-1.0,29.43,North,7,13.0,-999.0,34,-99.99,,,0.00,weatherlink.com 1.10,2013-02-18 00:46:00,
2013-02-17 20:01:00,23.9,0.0,29.44,NNW,348,13.0,-999.0,35,-99.99,,,0.00,weatherlink.com 1.10,2013-02-18 01:01:00,
2013-02-17 20:16:00,23.8,-2.0,29.45,NNE,12,2.0,-999.0,33,-99.99,,,0.00,weatherlink.com 1.10,2013-02-18 01:16:00,
2013-02-17 20:31:00,23.6,-2.0,29.45,North,356,7.0,-999.0,33,-99.99,,,0.00,weatherlink.com 1.10,2013-02-18 01:31:00,
2013-02-17 20:46:00,23.3,-1.0,29.46,North,10,11.0,-999.0,34,-99.99,,,0.00,weatherlink.com 1.10,2013-02-18 01:46:00,
2013-02-17 21:01:00,23.2,-2.0,29.47,North,10,5.0,-999.0,33,-99.99,,,0.00,weatherlink.com 1.10,2013-02-18 02:01:00,
2013-02-17 21:16:00,22.9,-2.0,29.48,NNE,17,8.0,-999.0,34,-99.99,,,0.00,weatherlink.com 1.10,2013-02-18 02:16:00,
2013-02-17 21:31:00,22.5,-1.0,29.49,North,352,5.0,-999.0,35,-99.99,,,0.00,weatherlink.com 1.10,2013-02-18 02:31:00,
2013-02-17 21:46:00,22.2,-1.0,29.50,North,9,7.0,-999.0,36,-99.99,,,0.00,weatherlink.com 1.10,2013-02-18 02:46:00,
2013-02-17 22:01:00,21.8,-2.0,29.50,NNE,12,8.0,-999.0,36,-99.99,,,0.00,weatherlink.com 1.10,2013-02-18 03:01:00,
2013-02-17 22:16:00,21.1,0.0,29.51,North,3,9.0,-999.0,40,-99.99,,,0.00,weatherlink.com 1.10,2013-02-18 03:16:00,
2013-02-17 22:31:00,20.3,0.0,29.52,NNE,29,6.0,-999.0,42,-99.99,,,0.00,weatherlink.com 1.10,2013-02-18 03:31:00,
2013-02-17 22:47:00,19.9,0.0,29.52,NNE,14,7.0,-999.0,42,-99.99,,,0.00,weatherlink.com 1.10,2013-02-18 03:47:00,
2013-02-17 23:02:00,19.4,0.0,29.53,North,9,6.0,-999.0,43,-99.99,,,0.00,weatherlink.com 1.10,2013-02-18 04:02:00,
2013-02-17 23:17:00,19.2,-1.0,29.54,North,349,11.0,-999.0,42,-99.99,,,0.00,weatherlink.com 1.10,2013-02-18 04:17:00,
2013-02-17 23:32:00,19.1,0.0,29.54,NNE,14,6.0,-999.0,43,-99.99,,,0.00,weatherlink.com 1.10,2013-02-18 04:32:00,
2013-02-17 23:47:00,18.6,-2.0,29.55,NNE,23,10.0,-999.0,41,-99.99,,,0.00,weatherlink.com 1.10,2013-02-18 04:47:00,